createdAt,value
2023-02-09T00:00:35.880Z,19.98
2023-02-09T00:01:35.970Z,19.97
2023-02-09T00:02:35.871Z,19.97
2023-02-09T00:03:35.950Z,19.97
2023-02-09T00:04:35.868Z,19.95
2023-02-09T00:05:35.850Z,19.95
2023-02-09T00:06:35.852Z,19.98
2023-02-09T00:07:35.832Z,19.95
2023-02-09T00:08:35.804Z,19.98
2023-02-09T00:09:35.820Z,19.97
2023-02-09T00:10:35.800Z,19.97
2023-02-09T00:11:35.782Z,19.97
2023-02-09T00:12:35.763Z,19.98
2023-02-09T00:13:35.757Z,19.98
2023-02-09T00:14:35.737Z,19.95
2023-02-09T00:15:35.772Z,19.97
2023-02-09T00:16:35.775Z,19.98
2023-02-09T00:17:35.720Z,19.98
2023-02-09T00:18:35.693Z,20.00
2023-02-09T00:19:35.698Z,19.95
2023-02-09T00:20:35.676Z,19.97
2023-02-09T00:21:35.713Z,19.98
2023-02-09T00:22:35.653Z,19.97
2023-02-09T00:23:35.658Z,19.98
2023-02-09T00:24:35.653Z,19.98
2023-02-09T00:25:35.634Z,19.97
2023-02-09T00:26:35.617Z,19.98
2023-02-09T00:27:35.865Z,19.98
2023-02-09T00:28:35.591Z,19.98
2023-02-09T00:29:35.600Z,20.00
2023-02-09T00:30:35.619Z,20.00
2023-02-09T00:31:35.681Z,19.97
2023-02-09T00:32:35.573Z,20.00
2023-02-09T00:33:35.551Z,19.98
2023-02-09T00:34:35.533Z,19.97
2023-02-09T00:35:35.531Z,19.98
2023-02-09T00:36:35.547Z,19.98
2023-02-09T00:37:35.511Z,19.97
2023-02-09T00:38:35.521Z,19.98
2023-02-09T00:39:35.511Z,20.00
2023-02-09T00:40:35.457Z,20.00
2023-02-09T00:41:35.470Z,20.00
2023-02-09T00:42:35.455Z,19.98
2023-02-09T00:43:35.451Z,19.98
2023-02-09T00:44:35.432Z,19.98
2023-02-09T00:45:35.457Z,19.98
2023-02-09T00:46:35.395Z,19.98
2023-02-09T00:47:35.413Z,19.97
2023-02-09T00:48:35.404Z,19.98
2023-02-09T00:49:35.395Z,19.98
2023-02-09T00:50:35.360Z,19.97
2023-02-09T00:51:35.403Z,19.98
2023-02-09T00:52:35.330Z,19.98
2023-02-09T00:53:35.336Z,19.98
2023-02-09T00:54:35.326Z,19.98
2023-02-09T00:55:35.322Z,19.97
2023-02-09T00:56:35.292Z,19.98
2023-02-09T00:57:35.320Z,19.98
2023-02-09T00:58:35.272Z,19.97
2023-02-09T00:59:35.283Z,19.98
2023-02-09T01:00:35.271Z,19.98
2023-02-09T01:01:35.344Z,20.00
2023-02-09T01:02:35.241Z,20.00
2023-02-09T01:03:35.247Z,20.00
2023-02-09T01:04:35.256Z,20.01
2023-02-09T01:05:35.207Z,20.04
2023-02-09T01:06:35.183Z,20.04
2023-02-09T01:07:35.203Z,20.07
2023-02-09T01:08:35.188Z,20.07
2023-02-09T01:09:35.171Z,20.07
2023-02-09T01:10:35.148Z,20.08
2023-02-09T01:11:35.156Z,20.10
2023-02-09T01:12:35.144Z,20.12
2023-02-09T01:13:35.134Z,20.12
2023-02-09T01:14:35.123Z,20.12
2023-02-09T01:15:35.113Z,20.12
2023-02-09T01:16:35.104Z,20.13
2023-02-09T01:17:35.079Z,20.15
2023-02-09T01:18:35.055Z,20.13
2023-02-09T01:19:35.063Z,20.15
2023-02-09T01:20:35.062Z,20.13
2023-02-09T01:21:35.035Z,20.13
2023-02-09T01:22:35.014Z,20.10
2023-02-09T01:23:35.034Z,20.12
2023-02-09T01:24:34.993Z,20.10
2023-02-09T01:25:34.996Z,20.08
2023-02-09T01:26:34.992Z,20.10
2023-02-09T01:27:34.989Z,20.08
2023-02-09T01:28:34.948Z,20.08
2023-02-09T01:29:34.959Z,20.07
2023-02-09T01:30:34.966Z,20.05
2023-02-09T01:31:35.092Z,20.07
2023-02-09T01:32:34.930Z,20.05
2023-02-09T01:33:34.908Z,20.05
2023-02-09T01:34:34.890Z,20.04
2023-02-09T01:35:34.921Z,20.07
2023-02-09T01:36:34.866Z,20.04
2023-02-09T01:37:34.886Z,20.05
2023-02-09T01:38:34.863Z,20.04
2023-02-09T01:39:34.867Z,20.04
2023-02-09T01:40:34.827Z,20.04
2023-02-09T01:41:34.830Z,20.02
2023-02-09T01:42:34.807Z,20.02
2023-02-09T01:43:34.827Z,20.01
2023-02-09T01:44:34.804Z,20.01
2023-02-09T01:45:34.784Z,20.00
2023-02-09T01:46:34.848Z,20.00
2023-02-09T01:47:34.774Z,20.00
2023-02-09T01:48:34.744Z,20.02
2023-02-09T01:49:34.771Z,20.01
2023-02-09T01:50:34.745Z,20.01
2023-02-09T01:51:34.725Z,19.98
2023-02-09T01:52:34.745Z,20.00
2023-02-09T01:53:34.702Z,20.00
2023-02-09T01:54:34.682Z,20.00
2023-02-09T01:55:34.696Z,20.00
2023-02-09T01:56:34.661Z,19.98
2023-02-09T01:57:34.704Z,20.01
2023-02-09T01:58:34.669Z,19.98
2023-02-09T01:59:34.644Z,19.98
2023-02-09T02:00:34.638Z,20.00
2023-02-09T02:01:34.669Z,20.00
2023-02-09T02:02:34.691Z,20.01
2023-02-09T02:03:34.606Z,20.00
2023-02-09T02:04:34.580Z,20.00
2023-02-09T02:05:34.575Z,20.00
2023-02-09T02:06:34.558Z,19.98
2023-02-09T02:07:34.585Z,20.01
2023-02-09T02:08:34.532Z,19.98
2023-02-09T02:09:34.545Z,19.97
2023-02-09T02:10:34.513Z,19.98
2023-02-09T02:11:34.510Z,19.98
2023-02-09T02:12:34.510Z,19.97
2023-02-09T02:13:34.525Z,19.98
2023-02-09T02:14:34.464Z,20.00
2023-02-09T02:15:34.546Z,20.00
2023-02-09T02:16:34.443Z,19.98
2023-02-09T02:17:34.450Z,19.98
2023-02-09T02:18:34.430Z,19.98
2023-02-09T02:19:34.453Z,19.98
2023-02-09T02:20:34.402Z,20.00
2023-02-09T02:21:34.429Z,20.00
2023-02-09T02:22:34.415Z,20.00
2023-02-09T02:23:34.381Z,19.98
2023-02-09T02:24:34.357Z,20.00
2023-02-09T02:25:34.367Z,20.00
2023-02-09T02:26:34.337Z,20.00
2023-02-09T02:27:34.341Z,20.00
2023-02-09T02:28:34.334Z,19.98
2023-02-09T02:29:34.323Z,20.00
2023-02-09T02:30:34.325Z,19.97
2023-02-09T02:31:34.356Z,19.98
2023-02-09T02:32:34.272Z,19.98
2023-02-09T02:33:34.282Z,19.98
2023-02-09T02:34:34.277Z,20.00
2023-02-09T02:35:34.256Z,20.00
2023-02-09T02:36:34.226Z,19.98
2023-02-09T02:37:34.252Z,19.97
2023-02-09T02:38:34.237Z,20.00
2023-02-09T02:39:34.217Z,19.98
2023-02-09T02:40:34.191Z,19.98
2023-02-09T02:41:34.194Z,19.98
2023-02-09T02:42:34.170Z,19.98
2023-02-09T02:43:34.167Z,19.95
2023-02-09T02:44:34.162Z,19.98
2023-02-09T02:45:34.144Z,19.97
2023-02-09T02:46:34.137Z,19.97
2023-02-09T02:47:34.126Z,20.00
2023-02-09T02:48:34.124Z,19.98
2023-02-09T02:49:34.131Z,20.01
2023-02-09T02:50:34.099Z,20.02
2023-02-09T02:51:34.098Z,20.02
2023-02-09T02:52:34.067Z,20.04
2023-02-09T02:53:34.086Z,20.05
2023-02-09T02:54:34.065Z,20.05
2023-02-09T02:55:34.047Z,20.07
2023-02-09T02:56:34.023Z,20.08
2023-02-09T02:57:34.037Z,20.08
2023-02-09T02:58:34.014Z,20.10
2023-02-09T02:59:34.029Z,20.10
2023-02-09T03:00:33.984Z,20.08
2023-02-09T03:01:34.043Z,20.08
2023-02-09T03:02:33.967Z,20.10
2023-02-09T03:03:33.973Z,20.08
2023-02-09T03:04:33.956Z,20.08
2023-02-09T03:05:34.005Z,20.07
2023-02-09T03:06:33.923Z,20.05
2023-02-09T03:07:33.925Z,20.04
2023-02-09T03:08:33.899Z,20.05
2023-02-09T03:09:33.902Z,20.02
2023-02-09T03:10:33.897Z,20.02
2023-02-09T03:11:33.895Z,20.02
2023-02-09T03:12:33.854Z,20.01
2023-02-09T03:13:33.863Z,20.01
2023-02-09T03:14:33.840Z,20.01
2023-02-09T03:15:33.836Z,20.01
2023-02-09T03:16:33.841Z,20.00
2023-02-09T03:17:33.827Z,20.00
2023-02-09T03:18:33.793Z,20.00
2023-02-09T03:19:33.798Z,20.00
2023-02-09T03:20:33.772Z,20.00
2023-02-09T03:21:33.780Z,20.00
2023-02-09T03:22:33.778Z,20.00
2023-02-09T03:23:33.786Z,20.01
2023-02-09T03:24:33.735Z,20.01
2023-02-09T03:25:33.746Z,20.02
2023-02-09T03:26:33.706Z,20.04
2023-02-09T03:27:33.721Z,20.04
2023-02-09T03:28:33.847Z,20.05
2023-02-09T03:29:33.717Z,20.07
2023-02-09T03:30:33.754Z,20.08
2023-02-09T03:31:33.756Z,20.12
2023-02-09T03:32:33.651Z,20.12
2023-02-09T03:33:33.654Z,20.15
2023-02-09T03:34:33.622Z,20.16
2023-02-09T03:35:33.632Z,20.15
2023-02-09T03:36:33.618Z,20.19
2023-02-09T03:37:33.590Z,20.19
2023-02-09T03:38:33.601Z,20.19
2023-02-09T03:39:33.579Z,20.19
2023-02-09T03:40:33.596Z,20.20
2023-02-09T03:41:33.572Z,20.20
2023-02-09T03:42:33.581Z,20.20
2023-02-09T03:43:33.555Z,20.25
2023-02-09T03:44:33.547Z,20.25
2023-02-09T03:45:33.552Z,20.25
2023-02-09T03:46:33.634Z,20.25
2023-02-09T03:47:33.523Z,20.23
2023-02-09T03:48:33.495Z,20.23
2023-02-09T03:49:33.541Z,20.23
2023-02-09T03:50:33.513Z,20.22
2023-02-09T03:51:33.447Z,20.20
2023-02-09T03:52:33.561Z,20.20
2023-02-09T03:53:33.433Z,20.20
2023-02-09T03:54:33.426Z,20.19
2023-02-09T03:55:33.409Z,20.19
2023-02-09T03:56:33.419Z,20.20
2023-02-09T03:57:33.391Z,20.20
2023-02-09T03:58:33.460Z,20.20
2023-02-09T03:59:33.368Z,20.19
2023-02-09T04:00:33.426Z,20.19
2023-02-09T04:01:33.339Z,20.19
2023-02-09T04:02:33.404Z,20.16
2023-02-09T04:03:33.316Z,20.17
2023-02-09T04:04:33.335Z,20.17
2023-02-09T04:05:33.294Z,20.17
2023-02-09T04:06:33.281Z,20.17
2023-02-09T04:07:33.221Z,20.15
2023-02-09T04:08:33.232Z,20.15
2023-02-09T04:09:33.203Z,20.13
2023-02-09T04:10:33.205Z,20.13
2023-02-09T04:11:33.184Z,20.12
2023-02-09T04:12:33.204Z,20.13
2023-02-09T04:13:33.162Z,20.13
2023-02-09T04:14:33.155Z,20.10
2023-02-09T04:15:33.187Z,20.10
2023-02-09T04:16:33.370Z,20.12
2023-02-09T04:17:33.172Z,20.10
2023-02-09T04:18:33.199Z,20.08
2023-02-09T04:19:33.150Z,20.08
2023-02-09T04:20:33.135Z,20.08
2023-02-09T04:21:33.120Z,20.08
2023-02-09T04:22:33.083Z,20.08
2023-02-09T04:23:33.101Z,20.10
2023-02-09T04:24:33.069Z,20.10
2023-02-09T04:25:33.028Z,20.07
2023-02-09T04:26:33.084Z,20.08
2023-02-09T04:27:33.006Z,20.07
2023-02-09T04:28:33.028Z,20.07
2023-02-09T04:29:33.010Z,20.07
2023-02-09T04:30:33.020Z,20.05
2023-02-09T04:31:33.038Z,20.05
2023-02-09T04:32:33.027Z,20.05
2023-02-09T04:33:32.997Z,20.04
2023-02-09T04:34:33.046Z,20.04
2023-02-09T04:35:32.988Z,20.04
2023-02-09T04:36:32.992Z,20.02
2023-02-09T04:37:32.964Z,20.04
2023-02-09T04:38:32.980Z,20.02
2023-02-09T04:39:32.934Z,20.01
2023-02-09T04:40:33.010Z,20.02
2023-02-09T04:41:32.948Z,20.01
2023-02-09T04:42:32.929Z,20.01
2023-02-09T04:43:32.910Z,20.01
2023-02-09T04:44:32.929Z,20.01
2023-02-09T04:45:32.967Z,20.00
2023-02-09T04:46:32.927Z,20.00
2023-02-09T04:47:32.818Z,20.00
2023-02-09T04:48:32.815Z,20.00
2023-02-09T04:49:32.781Z,19.97
2023-02-09T04:50:32.802Z,19.98
2023-02-09T04:51:32.854Z,19.98
2023-02-09T04:52:32.826Z,20.00
2023-02-09T04:53:32.796Z,19.97
2023-02-09T04:54:32.797Z,19.95
2023-02-09T04:55:32.787Z,19.97
2023-02-09T04:56:32.805Z,19.98
2023-02-09T04:57:32.749Z,19.97
2023-02-09T04:58:32.752Z,19.95
2023-02-09T04:59:32.683Z,19.94
2023-02-09T05:00:32.712Z,19.97
2023-02-09T05:01:32.789Z,19.95
2023-02-09T05:02:32.720Z,19.97
2023-02-09T05:03:32.737Z,19.97
2023-02-09T05:04:32.720Z,19.94
2023-02-09T05:05:32.665Z,19.95
2023-02-09T05:06:32.694Z,19.95
2023-02-09T05:07:32.661Z,19.95
2023-02-09T05:08:32.669Z,19.95
2023-02-09T05:09:32.631Z,19.94
2023-02-09T05:10:32.640Z,19.95
2023-02-09T05:11:32.604Z,19.95
2023-02-09T05:12:32.635Z,19.94
2023-02-09T05:13:32.585Z,19.95
2023-02-09T05:14:32.591Z,19.95
2023-02-09T05:15:32.567Z,19.95
2023-02-09T05:16:32.629Z,19.97
2023-02-09T05:17:32.548Z,19.94
2023-02-09T05:18:32.562Z,19.95
2023-02-09T05:19:32.520Z,19.95
2023-02-09T05:20:32.530Z,19.94
2023-02-09T05:21:32.929Z,19.94
2023-02-09T05:22:32.513Z,19.94
2023-02-09T05:23:32.497Z,19.94
2023-02-09T05:24:32.483Z,19.95
2023-02-09T05:25:32.501Z,19.95
2023-02-09T05:26:32.456Z,19.95
2023-02-09T05:27:32.440Z,19.95
2023-02-09T05:28:32.443Z,19.95
2023-02-09T05:29:32.424Z,19.94
2023-02-09T05:30:32.430Z,19.95
2023-02-09T05:31:32.550Z,19.92
2023-02-09T05:32:32.406Z,19.94
2023-02-09T05:33:32.376Z,19.94
2023-02-09T05:34:32.375Z,19.95
2023-02-09T05:35:32.390Z,19.94
2023-02-09T05:36:32.356Z,19.94
2023-02-09T05:37:32.327Z,19.92
2023-02-09T05:38:32.326Z,19.95
2023-02-09T05:39:32.314Z,19.95
2023-02-09T05:40:32.312Z,19.92
2023-02-09T05:41:32.314Z,19.92
2023-02-09T05:42:32.291Z,19.92
2023-02-09T05:43:32.269Z,19.94
2023-02-09T05:44:32.272Z,19.97
2023-02-09T05:45:32.246Z,19.94
2023-02-09T05:46:32.251Z,19.92
2023-02-09T05:47:32.250Z,19.90
2023-02-09T05:48:32.239Z,19.92
2023-02-09T05:49:32.202Z,19.89
2023-02-09T05:50:32.221Z,19.92
2023-02-09T05:51:32.195Z,19.92
2023-02-09T05:52:32.225Z,19.90
2023-02-09T05:53:32.158Z,19.92
2023-02-09T05:54:32.185Z,19.92
2023-02-09T05:55:32.136Z,19.90
2023-02-09T05:56:32.142Z,19.92
2023-02-09T05:57:32.111Z,19.90
2023-02-09T05:58:32.126Z,19.92
2023-02-09T05:59:32.090Z,19.92
2023-02-09T06:00:32.140Z,19.89
2023-02-09T06:01:32.079Z,19.89
2023-02-09T06:02:32.107Z,19.92
2023-02-09T06:03:32.088Z,19.90
2023-02-09T06:04:32.053Z,19.89
2023-02-09T06:05:32.048Z,19.89
2023-02-09T06:06:32.033Z,19.89
2023-02-09T06:07:32.005Z,19.89
2023-02-09T06:08:32.016Z,19.89
2023-02-09T06:09:31.983Z,19.89
2023-02-09T06:10:31.994Z,19.89
2023-02-09T06:11:31.989Z,19.89
2023-02-09T06:12:31.994Z,19.89
2023-02-09T06:13:31.949Z,19.87
2023-02-09T06:14:31.951Z,19.89
2023-02-09T06:15:31.962Z,19.89
2023-02-09T06:16:31.952Z,19.89
2023-02-09T06:17:31.932Z,19.89
2023-02-09T06:18:31.898Z,19.86
2023-02-09T06:19:31.885Z,19.89
2023-02-09T06:20:31.890Z,19.89
2023-02-09T06:21:31.857Z,19.86
2023-02-09T06:22:31.888Z,19.87
2023-02-09T06:23:33.406Z,19.89
2023-02-09T06:24:31.838Z,19.87
2023-02-09T06:25:31.821Z,19.89
2023-02-09T06:26:31.819Z,19.87
2023-02-09T06:27:31.823Z,19.89
2023-02-09T06:28:31.862Z,19.86
2023-02-09T06:29:31.767Z,19.87
2023-02-09T06:30:32.941Z,19.87
2023-02-09T06:31:31.866Z,19.86
2023-02-09T06:32:31.756Z,19.86
2023-02-09T06:33:31.755Z,19.87
2023-02-09T06:34:31.741Z,19.87
2023-02-09T06:35:31.706Z,19.89
2023-02-09T06:36:31.715Z,19.87
2023-02-09T06:37:31.636Z,19.85
2023-02-09T06:38:31.635Z,19.86
2023-02-09T06:39:31.641Z,19.87
2023-02-09T06:40:31.624Z,19.87
2023-02-09T06:41:31.623Z,19.86
2023-02-09T06:42:31.604Z,19.86
2023-02-09T06:43:31.579Z,19.87
2023-02-09T06:44:31.635Z,19.86
2023-02-09T06:45:31.578Z,19.86
2023-02-09T06:46:31.674Z,19.87
2023-02-09T06:47:31.531Z,19.89
2023-02-09T06:48:31.549Z,19.86
2023-02-09T06:49:31.523Z,19.89
2023-02-09T06:50:31.507Z,19.87
2023-02-09T06:51:31.538Z,19.87
2023-02-09T06:52:31.492Z,19.87
2023-02-09T06:53:31.468Z,19.87
2023-02-09T06:54:31.473Z,19.87
2023-02-09T06:55:31.452Z,19.86
2023-02-09T06:56:31.451Z,19.87
2023-02-09T06:57:31.453Z,19.89
2023-02-09T06:58:31.433Z,19.89
2023-02-09T06:59:31.406Z,19.87
2023-02-09T07:00:31.466Z,19.89
2023-02-09T07:01:31.497Z,19.89
2023-02-09T07:02:31.463Z,19.89
2023-02-09T07:03:31.367Z,19.89
2023-02-09T07:04:31.372Z,19.89
2023-02-09T07:05:31.338Z,19.90
2023-02-09T07:06:31.353Z,19.89
2023-02-09T07:07:31.343Z,19.90
2023-02-09T07:08:31.320Z,19.92
2023-02-09T07:09:31.301Z,19.92
2023-02-09T07:10:31.307Z,19.90
2023-02-09T07:11:31.283Z,19.89
2023-02-09T07:12:31.318Z,19.90
2023-02-09T07:13:31.256Z,19.90
2023-02-09T07:14:31.278Z,19.89
2023-02-09T07:15:31.231Z,19.89
2023-02-09T07:16:31.242Z,19.89
2023-02-09T07:17:31.210Z,19.86
2023-02-09T07:18:31.252Z,19.83
2023-02-09T07:19:31.204Z,19.80
2023-02-09T07:20:31.187Z,19.76
2023-02-09T07:21:31.177Z,19.71
2023-02-09T07:22:31.178Z,19.67
2023-02-09T07:23:31.159Z,19.64
2023-02-09T07:24:31.179Z,19.58
2023-02-09T07:25:32.183Z,19.53
2023-02-09T07:26:31.155Z,19.50
2023-02-09T07:27:31.099Z,19.45
2023-02-09T07:28:31.136Z,19.40
2023-02-09T07:29:31.090Z,19.38
2023-02-09T07:30:31.117Z,19.31
2023-02-09T07:31:31.223Z,19.27
2023-02-09T07:32:31.072Z,19.25
2023-02-09T07:33:31.044Z,19.20
2023-02-09T07:34:31.046Z,19.16
2023-02-09T07:35:31.023Z,19.12
2023-02-09T07:36:31.044Z,19.10
2023-02-09T07:37:31.028Z,19.07
2023-02-09T07:38:31.000Z,19.06
2023-02-09T07:39:30.971Z,19.02
2023-02-09T07:40:30.983Z,18.97
2023-02-09T07:41:30.955Z,18.94
2023-02-09T07:42:30.952Z,18.94
2023-02-09T07:43:30.982Z,18.90
2023-02-09T07:44:30.932Z,18.89
2023-02-09T07:45:30.908Z,18.87
2023-02-09T07:46:30.971Z,18.84
2023-02-09T07:47:30.898Z,18.84
2023-02-09T07:48:30.889Z,18.82
2023-02-09T07:49:30.885Z,18.84
2023-02-09T07:50:30.887Z,18.84
2023-02-09T07:51:32.873Z,18.83
2023-02-09T07:52:30.840Z,18.83
2023-02-09T07:53:30.844Z,18.83
2023-02-09T07:54:30.820Z,18.82
2023-02-09T07:55:30.838Z,18.83
2023-02-09T07:56:30.839Z,18.78
2023-02-09T07:57:30.799Z,18.74
2023-02-09T07:58:30.801Z,18.66
2023-02-09T07:59:30.769Z,18.56
2023-02-09T08:00:30.760Z,18.47
2023-02-09T08:01:30.764Z,18.36
2023-02-09T08:02:30.754Z,18.28
2023-02-09T08:03:30.731Z,18.21
2023-02-09T08:04:30.713Z,18.11
2023-02-09T08:05:30.932Z,18.04
2023-02-09T08:06:41.316Z,17.96
2023-02-09T08:07:30.693Z,17.89
2023-02-09T08:08:30.684Z,17.87
2023-02-09T08:09:30.672Z,17.81
2023-02-09T08:10:30.661Z,17.76
2023-02-09T08:11:30.640Z,17.74
2023-02-09T08:12:30.625Z,17.68
2023-02-09T08:13:30.624Z,17.66
2023-02-09T08:14:30.604Z,17.65
2023-02-09T08:15:30.611Z,17.60
2023-02-09T08:16:30.659Z,17.58
2023-02-09T08:17:30.594Z,17.55
2023-02-09T08:18:30.603Z,17.51
2023-02-09T08:19:30.579Z,17.49
2023-02-09T08:20:30.542Z,17.47
2023-02-09T08:21:30.574Z,17.43
2023-02-09T08:22:30.520Z,17.43
2023-02-09T08:23:30.561Z,17.39
2023-02-09T08:24:30.513Z,17.36
2023-02-09T08:25:30.535Z,17.35
2023-02-09T08:26:30.472Z,17.32
2023-02-09T08:27:30.484Z,17.27
2023-02-09T08:28:43.234Z,17.27
2023-02-09T08:29:30.473Z,17.22
2023-02-09T08:30:30.441Z,17.21
2023-02-09T08:31:30.623Z,17.21
2023-02-09T08:32:30.414Z,17.18
2023-02-09T08:33:30.414Z,17.17
2023-02-09T08:34:30.435Z,17.17
2023-02-09T08:35:30.868Z,17.15
2023-02-09T08:36:30.369Z,17.14
2023-02-09T08:37:30.373Z,17.12
2023-02-09T08:38:30.366Z,17.12
2023-02-09T08:39:30.356Z,17.14
2023-02-09T08:40:30.351Z,17.12
2023-02-09T08:41:30.339Z,17.14
2023-02-09T08:42:30.307Z,17.14
2023-02-09T08:43:30.305Z,17.14
2023-02-09T08:44:30.321Z,17.10
2023-02-09T08:45:30.458Z,17.12
2023-02-09T08:46:30.454Z,17.07
2023-02-09T08:47:30.266Z,17.07
2023-02-09T08:48:30.248Z,17.07
2023-02-09T08:49:30.243Z,17.06
2023-02-09T08:50:30.219Z,17.06
2023-02-09T08:51:30.248Z,17.03
2023-02-09T08:52:30.197Z,17.06
2023-02-09T08:53:30.200Z,17.05
2023-02-09T08:54:30.179Z,17.05
2023-02-09T08:55:30.180Z,17.03
2023-02-09T08:56:30.158Z,17.05
2023-02-09T08:57:43.098Z,17.05
2023-02-09T08:58:30.181Z,17.06
2023-02-09T08:59:30.154Z,17.06
2023-02-09T09:00:30.114Z,17.05
2023-02-09T09:01:30.193Z,17.07
2023-02-09T09:02:30.122Z,17.05
2023-02-09T09:03:30.236Z,17.03
2023-02-09T09:04:30.076Z,17.06
2023-02-09T09:05:32.024Z,17.05
2023-02-09T09:06:30.061Z,17.05
2023-02-09T09:07:30.066Z,17.03
2023-02-09T09:08:30.052Z,17.05
2023-02-09T09:09:30.065Z,17.05
2023-02-09T09:10:30.014Z,17.05
2023-02-09T09:11:30.024Z,17.05
2023-02-09T09:12:30.002Z,17.03
2023-02-09T09:13:30.006Z,17.03
2023-02-09T09:14:29.976Z,17.02
2023-02-09T09:15:30.001Z,17.05
2023-02-09T09:16:30.043Z,17.05
2023-02-09T09:17:29.953Z,17.03
2023-02-09T09:18:29.923Z,17.03
2023-02-09T09:19:29.934Z,16.98
2023-02-09T09:20:29.901Z,16.91
2023-02-09T09:21:29.915Z,16.87
2023-02-09T09:22:29.898Z,16.82
2023-02-09T09:23:29.892Z,16.80
2023-02-09T09:24:29.863Z,16.77
2023-02-09T09:25:29.871Z,16.78
2023-02-09T09:26:29.854Z,16.81
2023-02-09T09:27:29.874Z,16.90
2023-02-09T09:28:29.910Z,16.98
2023-02-09T09:29:29.829Z,17.07
2023-02-09T09:30:29.807Z,17.18
2023-02-09T09:31:29.931Z,17.27
2023-02-09T09:32:29.941Z,17.36
2023-02-09T09:33:29.804Z,17.43
2023-02-09T09:34:29.778Z,17.53
2023-02-09T09:35:29.771Z,17.60
2023-02-09T09:36:29.746Z,17.68
2023-02-09T09:37:29.737Z,17.74
2023-02-09T09:38:29.724Z,17.80
2023-02-09T09:39:29.725Z,17.87
2023-02-09T09:40:29.735Z,17.92
2023-02-09T09:41:29.708Z,17.96
2023-02-09T09:42:29.668Z,18.04
2023-02-09T09:43:29.683Z,18.07
2023-02-09T09:44:29.651Z,18.11
2023-02-09T09:45:29.666Z,18.14
2023-02-09T09:46:29.659Z,18.17
2023-02-09T09:47:29.654Z,18.21
2023-02-09T09:48:29.622Z,18.26
2023-02-09T09:49:29.608Z,18.28
2023-02-09T09:50:29.598Z,18.31
2023-02-09T09:51:29.601Z,18.34
2023-02-09T09:52:29.572Z,18.36
2023-02-09T09:53:29.604Z,18.38
2023-02-09T09:54:29.541Z,18.41
2023-02-09T09:55:29.549Z,18.44
2023-02-09T09:56:29.513Z,18.46
2023-02-09T09:57:29.544Z,18.50
2023-02-09T09:58:29.513Z,18.50
2023-02-09T09:59:29.510Z,18.53
2023-02-09T10:00:29.482Z,18.53
2023-02-09T10:01:29.549Z,18.54
2023-02-09T10:02:29.457Z,18.56
2023-02-09T10:03:29.484Z,18.59
2023-02-09T10:04:29.563Z,18.62
2023-02-09T10:05:29.454Z,18.64
2023-02-09T10:06:29.413Z,18.64
2023-02-09T10:07:29.432Z,18.65
2023-02-09T10:08:29.398Z,18.68
2023-02-09T10:09:29.409Z,18.69
2023-02-09T10:10:29.373Z,18.71
2023-02-09T10:11:29.367Z,18.71
2023-02-09T10:12:29.352Z,18.71
2023-02-09T10:13:29.348Z,18.71
2023-02-09T10:14:29.352Z,18.74
2023-02-09T10:15:29.359Z,18.75
2023-02-09T10:16:29.352Z,18.75
2023-02-09T10:17:29.315Z,18.78
2023-02-09T10:18:29.288Z,18.76
2023-02-09T10:19:29.292Z,18.78
2023-02-09T10:20:29.259Z,18.79
2023-02-09T10:21:29.313Z,18.79
2023-02-09T10:22:29.241Z,18.83
2023-02-09T10:23:29.252Z,18.82
2023-02-09T10:24:29.223Z,18.84
2023-02-09T10:25:29.221Z,18.83
2023-02-09T10:26:29.210Z,18.86
2023-02-09T10:27:29.209Z,18.86
2023-02-09T10:28:29.294Z,18.86
2023-02-09T10:29:29.184Z,18.87
2023-02-09T10:30:29.197Z,18.87
2023-02-09T10:31:29.277Z,18.87
2023-02-09T10:32:29.172Z,18.89
2023-02-09T10:33:29.142Z,18.89
2023-02-09T10:34:29.109Z,18.91
2023-02-09T10:35:29.156Z,18.90
2023-02-09T10:36:29.085Z,18.90
2023-02-09T10:37:29.087Z,18.91
2023-02-09T10:38:29.404Z,18.91
2023-02-09T10:39:29.116Z,18.94
2023-02-09T10:40:29.042Z,18.91
2023-02-09T10:41:29.052Z,18.91
2023-02-09T10:42:29.029Z,18.96
2023-02-09T10:43:29.050Z,18.96
2023-02-09T10:44:29.000Z,18.96
2023-02-09T10:45:29.045Z,18.96
2023-02-09T10:46:29.050Z,18.97
2023-02-09T10:47:28.993Z,18.96
2023-02-09T10:48:28.976Z,18.96
2023-02-09T10:49:28.972Z,18.99
2023-02-09T10:50:28.937Z,18.97
2023-02-09T10:51:29.173Z,18.99
2023-02-09T10:52:28.925Z,18.99
2023-02-09T10:53:28.952Z,19.01
2023-02-09T10:54:28.903Z,18.99
2023-02-09T10:55:28.893Z,19.02
2023-02-09T10:56:28.900Z,19.01
2023-02-09T10:57:28.883Z,19.01
2023-02-09T10:58:28.856Z,19.01
2023-02-09T10:59:28.854Z,19.01
2023-02-09T11:00:28.822Z,18.99
2023-02-09T11:01:28.919Z,19.01
2023-02-09T11:02:28.848Z,19.05
2023-02-09T11:03:28.814Z,19.05
2023-02-09T11:04:28.830Z,19.06
2023-02-09T11:05:28.827Z,19.05
2023-02-09T11:06:28.793Z,19.02
2023-02-09T11:07:30.641Z,19.06
2023-02-09T11:08:28.836Z,19.05
2023-02-09T11:09:28.768Z,19.05
2023-02-09T11:10:28.722Z,19.06
2023-02-09T11:11:28.737Z,19.07
2023-02-09T11:12:28.745Z,19.07
2023-02-09T11:13:30.008Z,19.09
2023-02-09T11:14:28.703Z,19.10
2023-02-09T11:15:28.715Z,19.10
2023-02-09T11:16:28.701Z,19.12
2023-02-09T11:17:28.668Z,19.12
2023-02-09T11:18:28.646Z,19.12
2023-02-09T11:19:28.654Z,19.15
2023-02-09T11:20:28.623Z,19.13
2023-02-09T11:21:28.658Z,19.15
2023-02-09T11:22:29.629Z,19.16
2023-02-09T11:23:28.607Z,19.15
2023-02-09T11:24:28.579Z,19.15
2023-02-09T11:25:28.619Z,19.17
2023-02-09T11:26:28.562Z,19.16
2023-02-09T11:27:28.556Z,19.17
2023-02-09T11:28:28.548Z,19.20
2023-02-09T11:29:28.562Z,19.20
2023-02-09T11:30:28.542Z,19.21
2023-02-09T11:31:28.675Z,19.20
2023-02-09T11:32:28.532Z,19.20
2023-02-09T11:33:28.507Z,19.20
2023-02-09T11:34:28.478Z,19.20
2023-02-09T11:35:28.504Z,19.21
2023-02-09T11:36:28.479Z,19.21
2023-02-09T11:37:28.464Z,19.23
2023-02-09T11:38:28.436Z,19.21
2023-02-09T11:39:28.446Z,19.21
2023-02-09T11:40:28.415Z,19.23
2023-02-09T11:41:28.434Z,19.21
2023-02-09T11:42:28.421Z,19.23
2023-02-09T11:43:28.401Z,19.23
2023-02-09T11:44:28.372Z,19.24
2023-02-09T11:45:28.381Z,19.24
2023-02-09T11:46:28.411Z,19.25
2023-02-09T11:47:28.368Z,19.24
2023-02-09T11:48:28.341Z,19.23
2023-02-09T11:49:28.333Z,19.24
2023-02-09T11:50:28.331Z,19.25
2023-02-09T11:51:29.910Z,19.24
2023-02-09T11:52:28.295Z,19.23
2023-02-09T11:53:28.298Z,19.24
2023-02-09T11:54:28.272Z,19.24
2023-02-09T11:55:28.275Z,19.24
2023-02-09T11:56:28.264Z,19.25
2023-02-09T11:57:28.260Z,19.25
2023-02-09T11:58:28.220Z,19.27
2023-02-09T11:59:28.223Z,19.25
2023-02-09T12:00:28.202Z,19.27
2023-02-09T12:01:28.204Z,19.25
2023-02-09T12:02:28.269Z,19.25
2023-02-09T12:03:28.188Z,19.24
2023-02-09T12:04:28.217Z,19.24
2023-02-09T12:05:28.162Z,19.25
2023-02-09T12:06:28.191Z,19.27
2023-02-09T12:07:28.126Z,19.27
2023-02-09T12:08:28.150Z,19.27
2023-02-09T12:09:28.110Z,19.27
2023-02-09T12:10:28.111Z,19.27
2023-02-09T12:11:28.083Z,19.27
2023-02-09T12:12:28.102Z,19.27
2023-02-09T12:13:28.062Z,19.27
2023-02-09T12:14:28.097Z,19.27
2023-02-09T12:15:28.042Z,19.27
2023-02-09T12:16:28.090Z,19.28
2023-02-09T12:17:28.037Z,19.28
2023-02-09T12:18:28.029Z,19.28
2023-02-09T12:19:28.005Z,19.27
2023-02-09T12:20:28.040Z,19.27
2023-02-09T12:21:27.986Z,19.28
2023-02-09T12:22:27.982Z,19.28
2023-02-09T12:23:27.959Z,19.27
2023-02-09T12:24:27.962Z,19.27
2023-02-09T12:25:27.933Z,19.28
2023-02-09T12:26:27.958Z,19.28
2023-02-09T12:27:27.915Z,19.28
2023-02-09T12:28:28.022Z,19.28
2023-02-09T12:29:27.901Z,19.28
2023-02-09T12:30:27.899Z,19.27
2023-02-09T12:31:28.206Z,19.30
2023-02-09T12:32:27.869Z,19.28
2023-02-09T12:33:27.846Z,19.30
2023-02-09T12:34:27.851Z,19.28
2023-02-09T12:35:27.829Z,19.27
2023-02-09T12:36:27.861Z,19.28
2023-02-09T12:37:28.646Z,19.28
2023-02-09T12:38:27.815Z,19.28
2023-02-09T12:39:27.779Z,19.30
2023-02-09T12:40:27.802Z,19.31
2023-02-09T12:41:27.766Z,19.30
2023-02-09T12:42:27.797Z,19.30
2023-02-09T12:43:27.766Z,19.31
2023-02-09T12:44:27.747Z,19.31
2023-02-09T12:45:27.779Z,19.28
2023-02-09T12:46:27.796Z,19.31
2023-02-09T12:47:27.747Z,19.31
2023-02-09T12:48:27.707Z,19.31
2023-02-09T12:49:27.674Z,19.31
2023-02-09T12:50:27.686Z,19.30
2023-02-09T12:51:27.657Z,19.32
2023-02-09T12:52:27.661Z,19.31